sensor_id;sensor_type;location;lat;lon;timestamp;P1;durP1;ratioP1;P2;durP2;ratioP2
28629;SDS011;15817;42.130;24.762;2023-11-18T00:06:45;4.85;;;1.80;;
28629;SDS011;15817;42.130;24.762;2023-11-18T00:09:11;9.63;;;1.75;;
28629;SDS011;15817;42.130;24.762;2023-11-18T00:11:41;5.05;;;1.65;;
28629;SDS011;15817;42.130;24.762;2023-11-18T00:25:01;3.08;;;1.58;;
28629;SDS011;15817;42.130;24.762;2023-11-18T00:27:36;4.00;;;1.40;;
28629;SDS011;15817;42.130;24.762;2023-11-18T00:30:03;1.98;;;1.10;;
28629;SDS011;15817;42.130;24.762;2023-11-18T00:32:36;2.53;;;1.00;;
28629;SDS011;15817;42.130;24.762;2023-11-18T00:35:03;1.13;;;1.00;;
28629;SDS011;15817;42.130;24.762;2023-11-18T00:37:32;1.00;;;0.73;;
28629;SDS011;15817;42.130;24.762;2023-11-18T00:39:58;1.38;;;0.98;;
28629;SDS011;15817;42.130;24.762;2023-11-18T00:42:30;5.97;;;0.90;;
28629;SDS011;15817;42.130;24.762;2023-11-18T00:45:03;2.60;;;1.08;;
28629;SDS011;15817;42.130;24.762;2023-11-18T00:47:32;3.20;;;1.17;;
28629;SDS011;15817;42.130;24.762;2023-11-18T00:49:58;3.17;;;1.10;;
28629;SDS011;15817;42.130;24.762;2023-11-18T00:52:27;1.50;;;1.02;;
28629;SDS011;15817;42.130;24.762;2023-11-18T00:54:53;2.97;;;1.00;;
28629;SDS011;15817;42.130;24.762;2023-11-18T00:57:21;2.05;;;1.15;;
28629;SDS011;15817;42.130;24.762;2023-11-18T00:59:52;1.13;;;1.00;;
28629;SDS011;15817;42.130;24.762;2023-11-18T01:02:56;3.72;;;1.10;;
28629;SDS011;15817;42.130;24.762;2023-11-18T01:05:22;1.25;;;1.10;;
28629;SDS011;15817;42.130;24.762;2023-11-18T01:07:48;2.13;;;1.40;;
28629;SDS011;15817;42.130;24.762;2023-11-18T01:10:15;1.77;;;1.30;;
28629;SDS011;15817;42.130;24.762;2023-11-18T01:12:41;1.70;;;1.27;;
28629;SDS011;15817;42.130;24.762;2023-11-18T01:15:13;5.40;;;1.50;;
28629;SDS011;15817;42.130;24.762;2023-11-18T01:17:39;2.38;;;1.60;;
28629;SDS011;15817;42.130;24.762;2023-11-18T01:20:06;2.80;;;1.92;;
28629;SDS011;15817;42.130;24.762;2023-11-18T01:22:39;2.13;;;1.70;;
28629;SDS011;15817;42.130;24.762;2023-11-18T01:25:10;2.13;;;1.52;;
28629;SDS011;15817;42.130;24.762;2023-11-18T01:27:37;2.15;;;1.40;;
28629;SDS011;15817;42.130;24.762;2023-11-18T01:30:03;1.52;;;1.42;;
28629;SDS011;15817;42.130;24.762;2023-11-18T01:32:38;1.58;;;1.30;;
28629;SDS011;15817;42.130;24.762;2023-11-18T01:35:07;2.35;;;1.40;;
28629;SDS011;15817;42.130;24.762;2023-11-18T01:37:37;2.83;;;1.10;;
28629;SDS011;15817;42.130;24.762;2023-11-18T01:40:06;0.95;;;0.88;;
28629;SDS011;15817;42.130;24.762;2023-11-18T01:42:36;1.25;;;0.90;;
28629;SDS011;15817;42.130;24.762;2023-11-18T01:45:04;1.15;;;1.00;;
28629;SDS011;15817;42.130;24.762;2023-11-18T01:47:32;1.75;;;1.13;;
28629;SDS011;15817;42.130;24.762;2023-11-18T01:50:05;1.80;;;1.10;;
28629;SDS011;15817;42.130;24.762;2023-11-18T01:52:46;1.48;;;1.00;;
28629;SDS011;15817;42.130;24.762;2023-11-18T01:55:16;0.95;;;0.93;;
28629;SDS011;15817;42.130;24.762;2023-11-18T01:57:42;2.65;;;0.70;;
28629;SDS011;15817;42.130;24.762;2023-11-18T02:00:09;1.02;;;0.75;;
28629;SDS011;15817;42.130;24.762;2023-11-18T02:02:40;1.05;;;0.95;;
28629;SDS011;15817;42.130;24.762;2023-11-18T02:05:09;0.70;;;0.70;;
28629;SDS011;15817;42.130;24.762;2023-11-18T02:07:38;2.70;;;0.77;;
28629;SDS011;15817;42.130;24.762;2023-11-18T02:10:06;0.73;;;0.70;;
28629;SDS011;15817;42.130;24.762;2023-11-18T02:12:41;1.17;;;1.05;;
28629;SDS011;15817;42.130;24.762;2023-11-18T02:15:13;2.47;;;0.90;;
28629;SDS011;15817;42.130;24.762;2023-11-18T02:17:41;1.70;;;0.88;;
28629;SDS011;15817;42.130;24.762;2023-11-18T02:20:10;3.17;;;0.70;;
28629;SDS011;15817;42.130;24.762;2023-11-18T02:22:46;0.77;;;0.52;;
28629;SDS011;15817;42.130;24.762;2023-11-18T02:25:15;2.42;;;0.80;;
28629;SDS011;15817;42.130;24.762;2023-11-18T02:27:42;0.93;;;0.52;;
28629;SDS011;15817;42.130;24.762;2023-11-18T02:30:09;1.23;;;0.60;;
28629;SDS011;15817;42.130;24.762;2023-11-18T02:37:52;3.85;;;0.80;;
28629;SDS011;15817;42.130;24.762;2023-11-18T02:40:26;2.88;;;0.50;;
28629;SDS011;15817;42.130;24.762;2023-11-18T02:42:55;2.50;;;0.50;;
28629;SDS011;15817;42.130;24.762;2023-11-18T02:45:24;0.75;;;0.40;;
28629;SDS011;15817;42.130;24.762;2023-11-18T02:47:51;1.05;;;0.50;;
28629;SDS011;15817;42.130;24.762;2023-11-18T02:50:20;1.85;;;0.50;;
28629;SDS011;15817;42.130;24.762;2023-11-18T02:52:46;1.55;;;0.50;;
28629;SDS011;15817;42.130;24.762;2023-11-18T02:55:12;0.85;;;0.60;;
28629;SDS011;15817;42.130;24.762;2023-11-18T02:57:38;1.33;;;0.50;;
28629;SDS011;15817;42.130;24.762;2023-11-18T03:00:07;4.03;;;0.52;;
28629;SDS011;15817;42.130;24.762;2023-11-18T03:02:44;4.47;;;0.60;;
28629;SDS011;15817;42.130;24.762;2023-11-18T03:05:13;2.17;;;0.57;;
28629;SDS011;15817;42.130;24.762;2023-11-18T03:07:49;1.20;;;0.68;;
28629;SDS011;15817;42.130;24.762;2023-11-18T03:10:19;1.02;;;0.93;;
28629;SDS011;15817;42.130;24.762;2023-11-18T03:12:52;0.98;;;0.50;;
28629;SDS011;15817;42.130;24.762;2023-11-18T03:15:28;1.70;;;0.77;;
28629;SDS011;15817;42.130;24.762;2023-11-18T03:17:56;0.60;;;0.60;;
28629;SDS011;15817;42.130;24.762;2023-11-18T03:20:23;0.70;;;0.60;;
28629;SDS011;15817;42.130;24.762;2023-11-18T03:22:49;1.02;;;0.50;;
28629;SDS011;15817;42.130;24.762;2023-11-18T03:25:17;0.60;;;0.47;;
28629;SDS011;15817;42.130;24.762;2023-11-18T03:27:47;3.25;;;0.55;;
28629;SDS011;15817;42.130;24.762;2023-11-18T03:30:13;2.45;;;0.55;;
28629;SDS011;15817;42.130;24.762;2023-11-18T03:32:39;1.27;;;0.70;;
28629;SDS011;15817;42.130;24.762;2023-11-18T03:35:08;2.83;;;0.60;;
28629;SDS011;15817;42.130;24.762;2023-11-18T03:37:35;2.38;;;0.60;;
28629;SDS011;15817;42.130;24.762;2023-11-18T03:40:08;0.75;;;0.50;;
28629;SDS011;15817;42.130;24.762;2023-11-18T03:42:47;1.08;;;0.60;;
28629;SDS011;15817;42.130;24.762;2023-11-18T03:45:13;2.00;;;0.80;;
28629;SDS011;15817;42.130;24.762;2023-11-18T03:47:56;2.00;;;0.80;;
28629;SDS011;15817;42.130;24.762;2023-11-18T03:50:22;0.40;;;0.30;;
28629;SDS011;15817;42.130;24.762;2023-11-18T03:52:48;1.67;;;0.43;;
28629;SDS011;15817;42.130;24.762;2023-11-18T03:55:14;1.58;;;0.50;;
28629;SDS011;15817;42.130;24.762;2023-11-18T03:57:39;0.50;;;0.50;;
28629;SDS011;15817;42.130;24.762;2023-11-18T04:00:14;2.83;;;0.50;;
28629;SDS011;15817;42.130;24.762;2023-11-18T04:02:44;0.80;;;0.50;;
28629;SDS011;15817;42.130;24.762;2023-11-18T04:05:11;3.70;;;0.57;;
28629;SDS011;15817;42.130;24.762;2023-11-18T04:07:38;0.50;;;0.47;;
28629;SDS011;15817;42.130;24.762;2023-11-18T04:10:07;4.97;;;0.80;;
28629;SDS011;15817;42.130;24.762;2023-11-18T04:12:43;1.08;;;0.50;;
28629;SDS011;15817;42.130;24.762;2023-11-18T04:15:14;3.00;;;0.70;;
28629;SDS011;15817;42.130;24.762;2023-11-18T04:17:43;0.43;;;0.40;;
28629;SDS011;15817;42.130;24.762;2023-11-18T04:20:12;1.02;;;0.50;;
28629;SDS011;15817;42.130;24.762;2023-11-18T04:22:39;1.40;;;0.70;;
28629;SDS011;15817;42.130;24.762;2023-11-18T04:25:06;1.85;;;0.77;;
28629;SDS011;15817;42.130;24.762;2023-11-18T04:27:43;3.90;;;0.55;;
28629;SDS011;15817;42.130;24.762;2023-11-18T04:30:09;0.60;;;0.50;;
28629;SDS011;15817;42.130;24.762;2023-11-18T04:32:36;1.17;;;0.60;;
28629;SDS011;15817;42.130;24.762;2023-11-18T04:35:12;0.50;;;0.50;;
28629;SDS011;15817;42.130;24.762;2023-11-18T04:37:37;0.70;;;0.57;;
28629;SDS011;15817;42.130;24.762;2023-11-18T04:40:15;1.17;;;0.70;;
28629;SDS011;15817;42.130;24.762;2023-11-18T04:42:49;2.65;;;0.90;;
28629;SDS011;15817;42.130;24.762;2023-11-18T04:45:15;1.95;;;0.98;;
28629;SDS011;15817;42.130;24.762;2023-11-18T04:47:43;0.80;;;0.60;;
28629;SDS011;15817;42.130;24.762;2023-11-18T04:50:12;1.10;;;0.80;;
28629;SDS011;15817;42.130;24.762;2023-11-18T04:52:38;0.93;;;0.63;;
28629;SDS011;15817;42.130;24.762;2023-11-18T04:55:04;2.22;;;0.70;;
28629;SDS011;15817;42.130;24.762;2023-11-18T04:57:34;1.00;;;0.90;;
28629;SDS011;15817;42.130;24.762;2023-11-18T05:00:04;1.77;;;0.80;;
28629;SDS011;15817;42.130;24.762;2023-11-18T05:02:37;4.43;;;0.90;;
28629;SDS011;15817;42.130;24.762;2023-11-18T05:05:04;2.05;;;0.70;;
28629;SDS011;15817;42.130;24.762;2023-11-18T05:07:31;2.53;;;0.88;;
28629;SDS011;15817;42.130;24.762;2023-11-18T05:10:01;0.90;;;0.90;;
28629;SDS011;15817;42.130;24.762;2023-11-18T05:12:37;2.20;;;1.10;;
28629;SDS011;15817;42.130;24.762;2023-11-18T05:15:06;1.23;;;1.10;;
28629;SDS011;15817;42.130;24.762;2023-11-18T05:18:11;1.13;;;0.95;;
28629;SDS011;15817;42.130;24.762;2023-11-18T05:20:54;3.00;;;1.20;;
28629;SDS011;15817;42.130;24.762;2023-11-18T05:23:22;2.25;;;1.38;;
28629;SDS011;15817;42.130;24.762;2023-11-18T05:25:53;1.55;;;1.27;;
28629;SDS011;15817;42.130;24.762;2023-11-18T05:28:21;1.90;;;1.10;;
28629;SDS011;15817;42.130;24.762;2023-11-18T05:30:50;1.70;;;1.30;;
28629;SDS011;15817;42.130;24.762;2023-11-18T05:33:26;1.83;;;1.20;;
28629;SDS011;15817;42.130;24.762;2023-11-18T05:35:53;1.50;;;1.38;;
28629;SDS011;15817;42.130;24.762;2023-11-18T05:38:21;3.92;;;1.27;;
28629;SDS011;15817;42.130;24.762;2023-11-18T05:40:49;1.35;;;1.23;;
28629;SDS011;15817;42.130;24.762;2023-11-18T05:43:27;1.70;;;1.35;;
28629;SDS011;15817;42.130;24.762;2023-11-18T05:45:56;2.13;;;1.40;;
28629;SDS011;15817;42.130;24.762;2023-11-18T05:51:49;1.20;;;1.02;;
28629;SDS011;15817;42.130;24.762;2023-11-18T05:54:17;2.50;;;1.60;;
28629;SDS011;15817;42.130;24.762;2023-11-18T05:56:46;4.40;;;2.38;;
28629;SDS011;15817;42.130;24.762;2023-11-18T05:59:15;2.55;;;1.50;;
28629;SDS011;15817;42.130;24.762;2023-11-18T06:01:53;2.60;;;1.15;;
28629;SDS011;15817;42.130;24.762;2023-11-18T06:04:22;2.45;;;1.73;;
28629;SDS011;15817;42.130;24.762;2023-11-18T06:06:48;1.45;;;1.35;;
28629;SDS011;15817;42.130;24.762;2023-11-18T06:09:22;6.75;;;1.63;;
28629;SDS011;15817;42.130;24.762;2023-11-18T06:11:58;1.50;;;1.40;;
28629;SDS011;15817;42.130;24.762;2023-11-18T06:14:28;2.85;;;1.20;;
28629;SDS011;15817;42.130;24.762;2023-11-18T06:17:08;1.92;;;1.50;;
28629;SDS011;15817;42.130;24.762;2023-11-18T06:19:36;4.55;;;1.45;;
28629;SDS011;15817;42.130;24.762;2023-11-18T06:22:12;2.15;;;1.88;;
28629;SDS011;15817;42.130;24.762;2023-11-18T06:24:43;6.20;;;1.60;;
28629;SDS011;15817;42.130;24.762;2023-11-18T06:27:17;10.55;;;1.83;;
28629;SDS011;15817;42.130;24.762;2023-11-18T06:33:17;4.13;;;1.67;;
28629;SDS011;15817;42.130;24.762;2023-11-18T06:35:43;1.63;;;1.25;;
28629;SDS011;15817;42.130;24.762;2023-11-18T06:38:17;2.45;;;1.60;;
28629;SDS011;15817;42.130;24.762;2023-11-18T06:40:47;1.98;;;1.20;;
28629;SDS011;15817;42.130;24.762;2023-11-18T06:43:50;2.00;;;1.50;;
28629;SDS011;15817;42.130;24.762;2023-11-18T06:47:15;9.23;;;1.63;;
28629;SDS011;15817;42.130;24.762;2023-11-18T06:50:01;11.40;;;1.77;;
28629;SDS011;15817;42.130;24.762;2023-11-18T06:53:15;10.20;;;1.42;;
28629;SDS011;15817;42.130;24.762;2023-11-18T06:55:48;3.88;;;1.30;;
28629;SDS011;15817;42.130;24.762;2023-11-18T06:58:32;3.47;;;1.40;;
28629;SDS011;15817;42.130;24.762;2023-11-18T07:04:13;2.75;;;1.42;;
28629;SDS011;15817;42.130;24.762;2023-11-18T07:06:46;2.53;;;1.27;;
28629;SDS011;15817;42.130;24.762;2023-11-18T07:09:22;1.65;;;1.23;;
28629;SDS011;15817;42.130;24.762;2023-11-18T07:11:54;1.25;;;1.15;;
28629;SDS011;15817;42.130;24.762;2023-11-18T07:14:22;2.00;;;1.20;;
28629;SDS011;15817;42.130;24.762;2023-11-18T07:17:13;1.27;;;1.17;;
28629;SDS011;15817;42.130;24.762;2023-11-18T07:19:49;1.77;;;1.40;;
28629;SDS011;15817;42.130;24.762;2023-11-18T07:23:24;6.93;;;1.42;;
28629;SDS011;15817;42.130;24.762;2023-11-18T07:25:53;2.35;;;1.20;;
28629;SDS011;15817;42.130;24.762;2023-11-18T07:28:27;1.23;;;1.00;;
28629;SDS011;15817;42.130;24.762;2023-11-18T07:31:05;4.05;;;1.02;;
28629;SDS011;15817;42.130;24.762;2023-11-18T07:41:33;3.50;;;1.15;;
28629;SDS011;15817;42.130;24.762;2023-11-18T07:51:24;1.00;;;0.90;;
28629;SDS011;15817;42.130;24.762;2023-11-18T07:54:43;5.85;;;1.30;;
28629;SDS011;15817;42.130;24.762;2023-11-18T07:57:41;2.10;;;0.75;;
28629;SDS011;15817;42.130;24.762;2023-11-18T08:00:30;0.73;;;0.50;;
28629;SDS011;15817;42.130;24.762;2023-11-18T08:03:15;3.45;;;1.00;;
28629;SDS011;15817;42.130;24.762;2023-11-18T08:09:17;2.80;;;0.75;;
28629;SDS011;15817;42.130;24.762;2023-11-18T08:15:52;6.85;;;0.70;;
28629;SDS011;15817;42.130;24.762;2023-11-18T08:19:14;0.77;;;0.63;;
28629;SDS011;15817;42.130;24.762;2023-11-18T08:22:39;0.50;;;0.50;;
28629;SDS011;15817;42.130;24.762;2023-11-18T08:25:37;2.47;;;0.77;;
28629;SDS011;15817;42.130;24.762;2023-11-18T08:28:03;3.35;;;0.93;;
28629;SDS011;15817;42.130;24.762;2023-11-18T08:30:43;1.23;;;0.82;;
28629;SDS011;15817;42.130;24.762;2023-11-18T08:33:39;0.75;;;0.60;;
28629;SDS011;15817;42.130;24.762;2023-11-18T08:36:28;2.75;;;0.80;;
28629;SDS011;15817;42.130;24.762;2023-11-18T08:39:11;1.70;;;0.60;;
28629;SDS011;15817;42.130;24.762;2023-11-18T08:42:03;1.33;;;0.50;;
28629;SDS011;15817;42.130;24.762;2023-11-18T08:45:00;2.10;;;0.80;;
28629;SDS011;15817;42.130;24.762;2023-11-18T08:48:58;4.85;;;1.33;;
28629;SDS011;15817;42.130;24.762;2023-11-18T08:55:49;6.47;;;0.70;;
28629;SDS011;15817;42.130;24.762;2023-11-18T09:02:48;4.55;;;1.60;;
28629;SDS011;15817;42.130;24.762;2023-11-18T09:13:41;0.85;;;0.70;;
28629;SDS011;15817;42.130;24.762;2023-11-18T09:16:48;0.95;;;0.70;;
28629;SDS011;15817;42.130;24.762;2023-11-18T09:26:26;3.92;;;1.05;;
28629;SDS011;15817;42.130;24.762;2023-11-18T09:29:15;6.63;;;1.27;;
28629;SDS011;15817;42.130;24.762;2023-11-18T09:32:21;2.33;;;0.70;;
28629;SDS011;15817;42.130;24.762;2023-11-18T09:35:42;2.53;;;0.60;;
28629;SDS011;15817;42.130;24.762;2023-11-18T09:38:44;2.22;;;0.63;;
28629;SDS011;15817;42.130;24.762;2023-11-18T10:39:31;5.78;;;1.08;;
28629;SDS011;15817;42.130;24.762;2023-11-18T10:42:00;5.45;;;0.80;;
28629;SDS011;15817;42.130;24.762;2023-11-18T10:44:53;3.03;;;0.63;;
28629;SDS011;15817;42.130;24.762;2023-11-18T10:47:44;4.30;;;0.93;;
28629;SDS011;15817;42.130;24.762;2023-11-18T10:53:31;2.75;;;0.63;;
28629;SDS011;15817;42.130;24.762;2023-11-18T10:56:18;1.08;;;0.60;;
28629;SDS011;15817;42.130;24.762;2023-11-18T11:01:54;3.42;;;0.80;;
28629;SDS011;15817;42.130;24.762;2023-11-18T11:05:03;9.20;;;1.02;;
28629;SDS011;15817;42.130;24.762;2023-11-18T11:07:32;3.95;;;0.85;;
28629;SDS011;15817;42.130;24.762;2023-11-18T11:13:31;4.45;;;1.13;;
28629;SDS011;15817;42.130;24.762;2023-11-18T11:16:06;4.72;;;0.70;;
28629;SDS011;15817;42.130;24.762;2023-11-18T11:19:16;1.80;;;1.17;;
28629;SDS011;15817;42.130;24.762;2023-11-18T11:22:06;1.42;;;0.70;;
28629;SDS011;15817;42.130;24.762;2023-11-18T11:32:13;9.38;;;0.75;;
28629;SDS011;15817;42.130;24.762;2023-11-18T11:35:05;4.25;;;0.70;;
28629;SDS011;15817;42.130;24.762;2023-11-18T11:37:52;7.07;;;0.90;;
28629;SDS011;15817;42.130;24.762;2023-11-18T11:43:55;5.70;;;0.80;;
28629;SDS011;15817;42.130;24.762;2023-11-18T11:46:53;2.17;;;0.77;;
28629;SDS011;15817;42.130;24.762;2023-11-18T11:49:27;6.82;;;2.40;;
28629;SDS011;15817;42.130;24.762;2023-11-18T11:52:15;6.10;;;2.50;;
28629;SDS011;15817;42.130;24.762;2023-11-18T11:58:34;1.10;;;0.55;;
28629;SDS011;15817;42.130;24.762;2023-11-18T12:01:47;3.28;;;0.80;;
28629;SDS011;15817;42.130;24.762;2023-11-18T12:12:14;3.08;;;1.13;;
28629;SDS011;15817;42.130;24.762;2023-11-18T12:15:13;6.50;;;1.40;;
28629;SDS011;15817;42.130;24.762;2023-11-18T12:20:55;1.42;;;0.95;;
28629;SDS011;15817;42.130;24.762;2023-11-18T12:24:22;3.75;;;1.00;;
28629;SDS011;15817;42.130;24.762;2023-11-18T12:27:01;2.80;;;2.00;;
28629;SDS011;15817;42.130;24.762;2023-11-18T12:48:21;9.20;;;2.10;;
28629;SDS011;15817;42.130;24.762;2023-11-18T12:55:14;6.22;;;1.17;;
28629;SDS011;15817;42.130;24.762;2023-11-18T12:58:45;5.03;;;1.00;;
28629;SDS011;15817;42.130;24.762;2023-11-18T13:01:34;2.10;;;0.93;;
28629;SDS011;15817;42.130;24.762;2023-11-18T13:04:29;1.92;;;1.15;;
28629;SDS011;15817;42.130;24.762;2023-11-18T13:14:27;4.63;;;0.90;;
28629;SDS011;15817;42.130;24.762;2023-11-18T13:18:23;0.98;;;0.80;;
28629;SDS011;15817;42.130;24.762;2023-11-18T13:21:16;2.42;;;0.82;;
28629;SDS011;15817;42.130;24.762;2023-11-18T13:24:44;1.30;;;0.93;;
28629;SDS011;15817;42.130;24.762;2023-11-18T13:32:10;1.40;;;1.00;;
28629;SDS011;15817;42.130;24.762;2023-11-18T13:35:02;1.52;;;0.70;;
28629;SDS011;15817;42.130;24.762;2023-11-18T13:37:39;3.45;;;0.82;;
28629;SDS011;15817;42.130;24.762;2023-11-18T13:40:35;1.40;;;0.80;;
28629;SDS011;15817;42.130;24.762;2023-11-18T13:43:12;3.85;;;0.93;;
28629;SDS011;15817;42.130;24.762;2023-11-18T13:46:21;0.70;;;0.70;;
28629;SDS011;15817;42.130;24.762;2023-11-18T13:49:16;1.55;;;0.70;;
28629;SDS011;15817;42.130;24.762;2023-11-18T13:51:56;2.90;;;0.90;;
28629;SDS011;15817;42.130;24.762;2023-11-18T13:54:44;1.55;;;0.80;;
28629;SDS011;15817;42.130;24.762;2023-11-18T13:57:27;1.13;;;0.80;;
28629;SDS011;15817;42.130;24.762;2023-11-18T14:00:07;2.55;;;0.73;;
28629;SDS011;15817;42.130;24.762;2023-11-18T14:02:59;1.08;;;0.80;;
28629;SDS011;15817;42.130;24.762;2023-11-18T14:05:57;4.88;;;1.38;;
28629;SDS011;15817;42.130;24.762;2023-11-18T14:08:49;4.50;;;1.00;;
28629;SDS011;15817;42.130;24.762;2023-11-18T14:11:19;1.60;;;1.02;;
28629;SDS011;15817;42.130;24.762;2023-11-18T14:14:11;1.52;;;1.08;;
28629;SDS011;15817;42.130;24.762;2023-11-18T14:16:44;2.45;;;1.20;;
28629;SDS011;15817;42.130;24.762;2023-11-18T14:19:24;0.60;;;0.60;;
28629;SDS011;15817;42.130;24.762;2023-11-18T14:21:56;5.03;;;0.90;;
28629;SDS011;15817;42.130;24.762;2023-11-18T14:24:26;2.63;;;1.00;;
28629;SDS011;15817;42.130;24.762;2023-11-18T14:26:56;1.67;;;0.88;;
28629;SDS011;15817;42.130;24.762;2023-11-18T14:29:34;1.33;;;0.90;;
28629;SDS011;15817;42.130;24.762;2023-11-18T14:32:04;1.10;;;0.80;;
28629;SDS011;15817;42.130;24.762;2023-11-18T14:34:42;5.28;;;1.08;;
28629;SDS011;15817;42.130;24.762;2023-11-18T14:37:08;4.00;;;1.23;;
28629;SDS011;15817;42.130;24.762;2023-11-18T14:40:10;1.02;;;0.80;;
28629;SDS011;15817;42.130;24.762;2023-11-18T14:45:34;4.07;;;0.93;;
28629;SDS011;15817;42.130;24.762;2023-11-18T14:48:06;3.63;;;1.00;;
28629;SDS011;15817;42.130;24.762;2023-11-18T14:50:34;3.10;;;1.20;;
28629;SDS011;15817;42.130;24.762;2023-11-18T14:53:15;2.10;;;1.00;;
28629;SDS011;15817;42.130;24.762;2023-11-18T14:55:56;4.03;;;1.15;;
28629;SDS011;15817;42.130;24.762;2023-11-18T14:58:27;2.05;;;0.90;;
28629;SDS011;15817;42.130;24.762;2023-11-18T15:04:24;1.98;;;0.90;;
28629;SDS011;15817;42.130;24.762;2023-11-18T15:07:21;3.63;;;1.10;;
28629;SDS011;15817;42.130;24.762;2023-11-18T15:10:06;1.40;;;1.00;;
28629;SDS011;15817;42.130;24.762;2023-11-18T15:13:32;1.08;;;0.98;;
28629;SDS011;15817;42.130;24.762;2023-11-18T15:16:48;2.60;;;0.90;;
28629;SDS011;15817;42.130;24.762;2023-11-18T15:19:50;6.10;;;1.10;;
28629;SDS011;15817;42.130;24.762;2023-11-18T15:22:42;2.33;;;1.00;;
28629;SDS011;15817;42.130;24.762;2023-11-18T15:38:12;2.22;;;1.10;;
28629;SDS011;15817;42.130;24.762;2023-11-18T15:53:29;2.70;;;1.40;;
28629;SDS011;15817;42.130;24.762;2023-11-18T15:56:06;4.93;;;1.33;;
28629;SDS011;15817;42.130;24.762;2023-11-18T15:59:10;4.22;;;1.70;;
28629;SDS011;15817;42.130;24.762;2023-11-18T16:01:42;6.63;;;1.63;;
28629;SDS011;15817;42.130;24.762;2023-11-18T16:04:38;1.85;;;1.38;;
28629;SDS011;15817;42.130;24.762;2023-11-18T16:07:17;1.83;;;1.35;;
28629;SDS011;15817;42.130;24.762;2023-11-18T16:09:56;1.85;;;1.23;;
28629;SDS011;15817;42.130;24.762;2023-11-18T16:12:28;2.10;;;1.52;;
28629;SDS011;15817;42.130;24.762;2023-11-18T16:18:30;1.88;;;1.50;;
28629;SDS011;15817;42.130;24.762;2023-11-18T16:21:13;2.20;;;1.50;;
28629;SDS011;15817;42.130;24.762;2023-11-18T16:30:57;1.55;;;1.40;;
28629;SDS011;15817;42.130;24.762;2023-11-18T16:33:46;3.40;;;1.45;;
28629;SDS011;15817;42.130;24.762;2023-11-18T16:39:49;1.70;;;1.40;;
28629;SDS011;15817;42.130;24.762;2023-11-18T16:43:09;2.10;;;1.35;;
28629;SDS011;15817;42.130;24.762;2023-11-18T16:45:48;2.30;;;1.20;;
28629;SDS011;15817;42.130;24.762;2023-11-18T16:52:31;2.28;;;1.58;;
28629;SDS011;15817;42.130;24.762;2023-11-18T16:55:19;3.72;;;1.63;;
28629;SDS011;15817;42.130;24.762;2023-11-18T17:05:34;4.00;;;1.40;;
28629;SDS011;15817;42.130;24.762;2023-11-18T17:11:54;5.15;;;1.55;;
28629;SDS011;15817;42.130;24.762;2023-11-18T17:15:21;2.13;;;1.60;;
28629;SDS011;15817;42.130;24.762;2023-11-18T17:18:54;2.58;;;1.48;;
28629;SDS011;15817;42.130;24.762;2023-11-18T17:21:30;3.03;;;1.70;;
28629;SDS011;15817;42.130;24.762;2023-11-18T17:24:45;4.82;;;1.83;;
28629;SDS011;15817;42.130;24.762;2023-11-18T17:27:14;2.33;;;1.60;;
28629;SDS011;15817;42.130;24.762;2023-11-18T17:36:28;4.97;;;2.20;;
28629;SDS011;15817;42.130;24.762;2023-11-18T17:39:01;6.45;;;2.30;;
28629;SDS011;15817;42.130;24.762;2023-11-18T17:42:12;7.18;;;2.67;;
28629;SDS011;15817;42.130;24.762;2023-11-18T17:44:48;4.53;;;1.85;;
28629;SDS011;15817;42.130;24.762;2023-11-18T17:51:11;3.58;;;1.70;;
28629;SDS011;15817;42.130;24.762;2023-11-18T17:53:47;5.63;;;1.80;;
28629;SDS011;15817;42.130;24.762;2023-11-18T17:56:20;5.22;;;1.73;;
28629;SDS011;15817;42.130;24.762;2023-11-18T17:58:48;5.13;;;2.03;;
28629;SDS011;15817;42.130;24.762;2023-11-18T18:02:01;5.25;;;1.90;;
28629;SDS011;15817;42.130;24.762;2023-11-18T18:05:00;2.38;;;1.60;;
28629;SDS011;15817;42.130;24.762;2023-11-18T18:08:08;8.02;;;2.00;;
28629;SDS011;15817;42.130;24.762;2023-11-18T18:18:46;9.68;;;2.38;;
28629;SDS011;15817;42.130;24.762;2023-11-18T18:24:56;5.38;;;1.77;;
28629;SDS011;15817;42.130;24.762;2023-11-18T18:34:51;2.33;;;1.63;;
28629;SDS011;15817;42.130;24.762;2023-11-18T18:37:59;3.30;;;1.50;;
28629;SDS011;15817;42.130;24.762;2023-11-18T18:41:03;5.28;;;2.03;;
28629;SDS011;15817;42.130;24.762;2023-11-18T18:44:15;2.97;;;1.45;;
28629;SDS011;15817;42.130;24.762;2023-11-18T18:47:02;3.45;;;1.33;;
28629;SDS011;15817;42.130;24.762;2023-11-18T18:49:48;6.22;;;1.48;;
28629;SDS011;15817;42.130;24.762;2023-11-18T18:52:39;1.90;;;1.30;;
28629;SDS011;15817;42.130;24.762;2023-11-18T18:56:00;7.38;;;1.67;;
28629;SDS011;15817;42.130;24.762;2023-11-18T18:59:42;2.95;;;1.50;;
28629;SDS011;15817;42.130;24.762;2023-11-18T19:06:33;1.52;;;1.20;;
28629;SDS011;15817;42.130;24.762;2023-11-18T19:09:25;4.70;;;1.20;;
28629;SDS011;15817;42.130;24.762;2023-11-18T19:12:05;5.13;;;1.10;;
28629;SDS011;15817;42.130;24.762;2023-11-18T19:18:29;1.90;;;1.20;;
28629;SDS011;15817;42.130;24.762;2023-11-18T19:21:29;2.72;;;1.30;;
28629;SDS011;15817;42.130;24.762;2023-11-18T19:24:08;3.80;;;1.27;;
28629;SDS011;15817;42.130;24.762;2023-11-18T19:26:48;2.45;;;1.30;;
28629;SDS011;15817;42.130;24.762;2023-11-18T19:29:23;3.03;;;1.38;;
28629;SDS011;15817;42.130;24.762;2023-11-18T19:32:04;8.82;;;1.50;;
28629;SDS011;15817;42.130;24.762;2023-11-18T19:35:24;4.20;;;1.50;;
28629;SDS011;15817;42.130;24.762;2023-11-18T19:42:57;2.17;;;1.20;;
28629;SDS011;15817;42.130;24.762;2023-11-18T19:46:29;2.22;;;1.25;;
28629;SDS011;15817;42.130;24.762;2023-11-18T19:49:43;2.08;;;1.25;;
28629;SDS011;15817;42.130;24.762;2023-11-18T19:53:05;1.65;;;1.23;;
28629;SDS011;15817;42.130;24.762;2023-11-18T19:56:07;3.80;;;1.27;;
28629;SDS011;15817;42.130;24.762;2023-11-18T19:59:41;1.73;;;1.10;;
28629;SDS011;15817;42.130;24.762;2023-11-18T20:11:00;2.17;;;1.30;;
28629;SDS011;15817;42.130;24.762;2023-11-18T20:14:34;2.30;;;1.42;;
28629;SDS011;15817;42.130;24.762;2023-11-18T20:18:13;2.08;;;0.93;;
28629;SDS011;15817;42.130;24.762;2023-11-18T20:21:27;4.45;;;1.35;;
28629;SDS011;15817;42.130;24.762;2023-11-18T20:27:47;2.83;;;1.20;;
28629;SDS011;15817;42.130;24.762;2023-11-18T20:31:12;1.67;;;1.17;;
28629;SDS011;15817;42.130;24.762;2023-11-18T20:44:37;1.20;;;0.90;;
28629;SDS011;15817;42.130;24.762;2023-11-18T20:47:08;2.15;;;1.20;;
28629;SDS011;15817;42.130;24.762;2023-11-18T20:50:01;1.10;;;0.85;;
28629;SDS011;15817;42.130;24.762;2023-11-18T20:56:54;1.38;;;1.13;;
28629;SDS011;15817;42.130;24.762;2023-11-18T21:00:11;2.10;;;1.13;;
28629;SDS011;15817;42.130;24.762;2023-11-18T21:15:47;2.22;;;1.02;;
28629;SDS011;15817;42.130;24.762;2023-11-18T21:40:47;2.10;;;1.05;;
28629;SDS011;15817;42.130;24.762;2023-11-18T21:43:58;1.55;;;0.93;;
28629;SDS011;15817;42.130;24.762;2023-11-18T22:22:16;1.88;;;1.00;;
28629;SDS011;15817;42.130;24.762;2023-11-18T22:25:31;2.03;;;1.23;;
28629;SDS011;15817;42.130;24.762;2023-11-18T22:28:17;1.25;;;0.95;;
28629;SDS011;15817;42.130;24.762;2023-11-18T22:55:01;1.90;;;1.10;;
28629;SDS011;15817;42.130;24.762;2023-11-18T23:09:39;0.90;;;0.73;;
28629;SDS011;15817;42.130;24.762;2023-11-18T23:20:35;1.17;;;0.80;;
28629;SDS011;15817;42.130;24.762;2023-11-18T23:24:32;1.52;;;0.98;;
28629;SDS011;15817;42.130;24.762;2023-11-18T23:30:23;1.25;;;1.00;;
28629;SDS011;15817;42.130;24.762;2023-11-18T23:36:38;4.25;;;1.08;;
28629;SDS011;15817;42.130;24.762;2023-11-18T23:39:19;2.33;;;0.98;;